Ossian, Iowa
Current Conditions -  °F | °C
As of 12:55 AM on Monday 24 Nov 2014 (Local Time) from KDEH Reporting Station
Overcast Overcast  
Wind Chill: 28°   Ceiling: 800
Heat Index: 37°   Visibility: 10mi
Dew Point: 36°   Wind: 16mph
Humidity: 93%   Direction: 320°NW
Pressure: 29.2"   Gusts: NA
Location:  43.15°N, 91.76°W
Report Text: KDEH 240655Z AUTO 32014KT 10SM OVC008 03/02 A2920 RMK AO2
Loading
Personal Weather Stations






























Interactive Weather Map New forecast layout! Learn more

10-Day Weather Forecast

Advertisements
Track Severe Weather on mobile